Time;durP1;ratioP1;P1;durP2;ratioP2;P2;SDS_P1;SDS_P2;PMS_P1;PMS_P2;Temp;Humidity;BMP_temperature;BMP_pressure;BME280_temperature;BME280_humidity;BME280_pressure;Samples;Min_cycle;Max_cycle;Signal;HPM_P1;HPM_P2
2022/09/25 00:00:08;;;;;;;5.13;4.63;;;;;;;;;;5067995;28;20604;-80
2022/09/25 00:02:33;;;;;;;4.50;4.10;;;;;;;;;;5070220;28;20267;-80
2022/09/25 00:04:59;;;;;;;4.67;4.27;;;;;;;;;;5068478;28;20234;-80
2022/09/25 00:07:24;;;;;;;5.87;4.57;;;;;;;;;;5071174;28;20193;-81
2022/09/25 00:09:49;;;;;;;5.27;4.77;;;;;;;;;;5072128;28;20163;-81
2022/09/25 00:12:14;;;;;;;5.20;4.70;;;;;;;;;;5060909;28;20186;-80
2022/09/25 00:14:39;;;;;;;5.67;4.70;;;;;;;;;;5064208;28;20204;-80
2022/09/25 00:17:05;;;;;;;4.77;4.30;;;;;;;;;;5066934;28;20174;-81
2022/09/25 00:22:14;;;;;;;4.83;4.40;;;;;;;;;;5061554;28;20195;-80
2022/09/25 00:24:39;;;;;;;3.97;3.63;;;;;;;;;;5057680;28;20225;-80
2022/09/25 00:27:06;;;;;;;3.93;3.63;;;;;;;;;;5058952;28;20188;-80
2022/09/25 00:29:31;;;;;;;3.70;3.40;;;;;;;;;;5067424;28;20184;-80
2022/09/25 00:31:56;;;;;;;3.90;3.50;;;;;;;;;;5070526;28;20187;-81
2022/09/25 00:34:21;;;;;;;4.20;3.90;;;;;;;;;;5069589;28;20453;-81
2022/09/25 00:36:46;;;;;;;4.20;3.90;;;;;;;;;;5071077;28;20170;-80
2022/09/25 00:39:12;;;;;;;3.60;3.30;;;;;;;;;;5071406;28;20184;-80
2022/09/25 00:41:38;;;;;;;4.73;3.40;;;;;;;;;;5075213;28;20172;-80
2022/09/25 00:44:23;;;;;;;4.17;3.57;;;;;;;;;;5070470;28;20191;-80
2022/09/25 00:46:48;;;;;;;4.10;3.70;;;;;;;;;;5063352;28;20199;-81
2022/09/25 00:49:16;;;;;;;4.83;3.87;;;;;;;;;;5069496;28;20237;-80
2022/09/25 00:51:44;;;;;;;4.53;4.13;;;;;;;;;;5068756;28;20191;-81
2022/09/25 00:54:13;;;;;;;4.13;3.73;;;;;;;;;;5068875;28;20192;-80
2022/09/25 00:56:40;;;;;;;4.03;3.70;;;;;;;;;;5070076;28;20194;-80
2022/09/25 00:59:08;;;;;;;5.07;4.27;;;;;;;;;;5065758;28;20187;-80
2022/09/25 01:01:33;;;;;;;3.60;3.30;;;;;;;;;;5078280;28;20186;-80
2022/09/25 01:03:58;;;;;;;4.30;3.57;;;;;;;;;;5066389;28;20281;-81
2022/09/25 01:06:25;;;;;;;3.63;3.33;;;;;;;;;;5087005;28;20204;-80
2022/09/25 01:08:50;;;;;;;4.00;3.60;;;;;;;;;;5077186;28;20183;-80
2022/09/25 01:11:16;;;;;;;3.57;3.27;;;;;;;;;;5069537;28;20176;-80
2022/09/25 01:13:41;;;;;;;4.07;3.10;;;;;;;;;;5063968;28;20303;-81
2022/09/25 01:16:17;;;;;;;4.60;4.20;;;;;;;;;;5063819;28;20223;-80
2022/09/25 01:19:01;;;;;;;4.20;3.80;;;;;;;;;;5070531;28;20176;-80
2022/09/25 01:21:31;;;;;;;4.90;4.07;;;;;;;;;;5059835;28;20181;-81
2022/09/25 01:24:10;;;;;;;4.43;4.03;;;;;;;;;;5065825;28;20239;-80
2022/09/25 01:26:41;;;;;;;4.17;3.77;;;;;;;;;;5079987;28;20186;-80
2022/09/25 01:29:30;;;;;;;5.13;4.10;;;;;;;;;;5069320;28;20207;-80
2022/09/25 01:32:02;;;;;;;4.90;4.50;;;;;;;;;;5061350;28;20187;-80
2022/09/25 01:34:30;;;;;;;4.70;4.30;;;;;;;;;;5064131;28;20202;-80
2022/09/25 01:36:59;;;;;;;4.27;3.87;;;;;;;;;;5066710;28;20176;-81
2022/09/25 01:39:31;;;;;;;5.57;4.97;;;;;;;;;;5070615;28;20218;-80
2022/09/25 01:42:03;;;;;;;6.00;5.20;;;;;;;;;;5064462;28;20238;-81
2022/09/25 01:44:30;;;;;;;5.77;5.00;;;;;;;;;;5067849;28;20248;-80
2022/09/25 01:47:12;;;;;;;5.50;5.00;;;;;;;;;;5061343;28;20236;-80
2022/09/25 01:49:41;;;;;;;7.50;5.53;;;;;;;;;;5063236;28;20184;-80
2022/09/25 01:52:11;;;;;;;6.40;5.60;;;;;;;;;;5068807;28;20232;-80
2022/09/25 01:54:38;;;;;;;6.43;5.83;;;;;;;;;;5069287;28;20290;-80
2022/09/25 01:57:08;;;;;;;5.93;5.40;;;;;;;;;;5075495;28;20269;-81
2022/09/25 01:59:45;;;;;;;5.83;5.20;;;;;;;;;;5065685;28;20188;-81
2022/09/25 02:02:12;;;;;;;6.27;5.67;;;;;;;;;;5068832;28;20179;-81
2022/09/25 02:04:39;;;;;;;7.00;5.03;;;;;;;;;;5063933;28;20195;-80
2022/09/25 02:07:08;;;;;;;6.33;5.73;;;;;;;;;;5059980;28;20183;-80
2022/09/25 02:09:39;;;;;;;6.07;5.07;;;;;;;;;;5065535;28;20257;-80
2022/09/25 02:12:07;;;;;;;5.60;5.07;;;;;;;;;;5063544;28;20188;-80
2022/09/25 02:14:34;;;;;;;6.37;5.77;;;;;;;;;;5064223;28;20211;-80
2022/09/25 02:17:00;;;;;;;6.53;5.70;;;;;;;;;;5067058;28;20230;-80
2022/09/25 02:22:30;;;;;;;6.40;5.57;;;;;;;;;;5065192;28;20198;-80
2022/09/25 02:25:08;;;;;;;6.53;5.80;;;;;;;;;;5065602;28;20245;-80
2022/09/25 02:27:34;;;;;;;5.80;4.93;;;;;;;;;;5061100;28;20210;-80
2022/09/25 02:29:59;;;;;;;7.20;5.50;;;;;;;;;;5059139;28;20203;-80
2022/09/25 02:32:27;;;;;;;5.60;5.00;;;;;;;;;;5070637;28;20187;-80
2022/09/25 02:34:52;;;;;;;5.73;5.23;;;;;;;;;;5068175;28;20178;-80
2022/09/25 02:37:18;;;;;;;7.00;6.30;;;;;;;;;;5066530;28;20182;-80
2022/09/25 02:39:45;;;;;;;6.70;6.00;;;;;;;;;;5058549;28;20186;-81
2022/09/25 02:42:31;;;;;;;6.17;5.63;;;;;;;;;;5083403;28;20203;-80
2022/09/25 02:44:56;;;;;;;7.00;6.40;;;;;;;;;;5017791;28;20199;-80
2022/09/25 02:47:21;;;;;;;8.00;6.43;;;;;;;;;;5063051;28;20193;-80
2022/09/25 02:50:07;;;;;;;8.43;6.20;;;;;;;;;;5059262;28;20199;-80
2022/09/25 02:52:39;;;;;;;6.53;5.83;;;;;;;;;;5079811;28;20214;-80
2022/09/25 02:55:08;;;;;;;7.07;6.40;;;;;;;;;;5063022;28;20893;-80
2022/09/25 02:57:40;;;;;;;8.73;6.87;;;;;;;;;;5082051;28;20244;-81
2022/09/25 03:00:06;;;;;;;6.80;6.10;;;;;;;;;;5067684;28;20180;-81
2022/09/25 03:02:33;;;;;;;7.50;6.70;;;;;;;;;;5068518;28;20174;-80
2022/09/25 03:04:59;;;;;;;8.13;7.20;;;;;;;;;;5070944;28;20252;-80
2022/09/25 03:07:24;;;;;;;9.00;7.90;;;;;;;;;;5068371;28;20182;-80
2022/09/25 03:09:51;;;;;;;8.13;7.33;;;;;;;;;;5071514;28;20256;-80
2022/09/25 03:12:17;;;;;;;8.70;7.80;;;;;;;;;;5062426;28;20178;-80
2022/09/25 03:14:42;;;;;;;7.43;6.83;;;;;;;;;;5069749;28;20231;-80
2022/09/25 03:17:09;;;;;;;7.90;7.17;;;;;;;;;;5066720;28;20231;-80
2022/09/25 03:19:34;;;;;;;8.63;7.77;;;;;;;;;;5064512;28;20199;-80
2022/09/25 03:22:00;;;;;;;7.73;6.97;;;;;;;;;;5072572;28;20161;-80
2022/09/25 03:24:25;;;;;;;8.30;7.37;;;;;;;;;;5067432;28;20225;-80
2022/09/25 03:26:52;;;;;;;8.20;7.27;;;;;;;;;;5077205;28;20181;-80
2022/09/25 03:29:17;;;;;;;7.50;6.77;;;;;;;;;;5068204;28;20175;-80
2022/09/25 03:31:44;;;;;;;7.57;6.87;;;;;;;;;;5068968;28;20178;-80
2022/09/25 03:34:10;;;;;;;7.27;6.57;;;;;;;;;;5058922;28;20247;-80
2022/09/25 03:36:36;;;;;;;6.43;5.80;;;;;;;;;;5063852;28;20245;-80
2022/09/25 03:39:02;;;;;;;6.80;6.10;;;;;;;;;;5069675;28;20189;-81
2022/09/25 03:41:29;;;;;;;6.87;6.17;;;;;;;;;;5069464;28;20187;-80
2022/09/25 03:43:55;;;;;;;7.43;5.97;;;;;;;;;;5066043;28;20180;-80
2022/09/25 03:46:24;;;;;;;6.53;5.90;;;;;;;;;;5068202;28;20184;-80
2022/09/25 03:48:51;;;;;;;6.40;5.80;;;;;;;;;;5063994;28;20198;-80
2022/09/25 03:51:18;;;;;;;6.40;5.80;;;;;;;;;;5068054;28;20187;-80
2022/09/25 03:53:43;;;;;;;6.57;5.87;;;;;;;;;;5071729;28;20209;-80
2022/09/25 03:56:10;;;;;;;7.47;5.90;;;;;;;;;;5069793;28;20181;-80
2022/09/25 03:58:36;;;;;;;6.93;6.27;;;;;;;;;;5072232;28;20190;-80
2022/09/25 04:01:01;;;;;;;5.70;5.20;;;;;;;;;;5063909;28;20178;-80
2022/09/25 04:03:27;;;;;;;6.33;5.73;;;;;;;;;;5064793;28;20213;-80
2022/09/25 04:05:54;;;;;;;6.60;5.67;;;;;;;;;;5063602;28;20205;-80
2022/09/25 04:08:19;;;;;;;5.93;5.37;;;;;;;;;;5065424;28;20180;-81
2022/09/25 04:10:45;;;;;;;8.67;6.33;;;;;;;;;;5067549;28;20193;-80
2022/09/25 04:13:11;;;;;;;7.27;6.43;;;;;;;;;;5067748;28;20198;-80
2022/09/25 04:15:36;;;;;;;6.17;5.57;;;;;;;;;;5065533;28;20184;-80
2022/09/25 04:18:02;;;;;;;6.80;6.20;;;;;;;;;;5071649;28;20183;-80
2022/09/25 04:20:27;;;;;;;6.43;5.83;;;;;;;;;;5062874;28;20189;-81
2022/09/25 04:22:52;;;;;;;6.40;5.80;;;;;;;;;;5069631;28;20205;-80
2022/09/25 04:25:20;;;;;;;6.43;5.83;;;;;;;;;;5076101;28;20192;-80
2022/09/25 04:27:45;;;;;;;5.20;4.70;;;;;;;;;;5067687;28;20206;-80
2022/09/25 04:30:11;;;;;;;5.57;5.00;;;;;;;;;;5065067;28;20210;-80
2022/09/25 04:35:20;;;;;;;6.93;6.23;;;;;;;;;;5068642;28;20247;-80
2022/09/25 04:37:45;;;;;;;7.87;6.13;;;;;;;;;;5070394;28;20268;-80
2022/09/25 04:40:10;;;;;;;7.17;6.23;;;;;;;;;;5070286;28;20182;-80
2022/09/25 04:42:36;;;;;;;9.57;5.73;;;;;;;;;;5072041;28;20170;-80
2022/09/25 04:45:01;;;;;;;7.60;6.23;;;;;;;;;;5063985;28;20185;-80
2022/09/25 04:47:29;;;;;;;6.53;5.87;;;;;;;;;;5070900;28;20178;-80
2022/09/25 04:49:55;;;;;;;11.17;6.77;;;;;;;;;;5064603;28;20187;-80
2022/09/25 04:52:21;;;;;;;5.77;5.23;;;;;;;;;;5064028;28;20184;-80
2022/09/25 04:54:46;;;;;;;5.33;4.83;;;;;;;;;;5066688;28;20241;-80
2022/09/25 04:57:20;;;;;;;6.73;5.40;;;;;;;;;;5066133;28;20184;-80
2022/09/25 04:59:47;;;;;;;6.20;5.60;;;;;;;;;;5065496;28;20173;-80
2022/09/25 05:02:13;;;;;;;7.13;6.43;;;;;;;;;;5069646;28;20177;-80
2022/09/25 05:04:38;;;;;;;7.63;6.83;;;;;;;;;;5070265;28;20198;-80
2022/09/25 05:07:04;;;;;;;8.30;6.77;;;;;;;;;;5070512;28;20181;-81
2022/09/25 05:09:30;;;;;;;6.33;5.57;;;;;;;;;;5066667;28;20271;-80
2022/09/25 05:11:55;;;;;;;7.70;5.90;;;;;;;;;;5064478;28;20193;-80
2022/09/25 05:14:23;;;;;;;6.93;5.40;;;;;;;;;;5060447;28;20198;-80
2022/09/25 05:16:48;;;;;;;7.77;5.27;;;;;;;;;;5068878;28;20180;-80
2022/09/25 05:19:14;;;;;;;7.80;7.10;;;;;;;;;;5070731;28;20169;-80
2022/09/25 05:21:40;;;;;;;6.67;6.00;;;;;;;;;;5065352;28;20259;-80
2022/09/25 05:24:07;;;;;;;7.77;5.37;;;;;;;;;;5064727;28;20228;-80
2022/09/25 05:26:33;;;;;;;6.43;5.83;;;;;;;;;;5064989;28;20178;-80
2022/09/25 05:28:59;;;;;;;6.60;6.00;;;;;;;;;;5068043;28;20280;-80
2022/09/25 05:31:24;;;;;;;6.70;6.10;;;;;;;;;;5057371;28;20265;-80
2022/09/25 05:33:50;;;;;;;6.83;6.13;;;;;;;;;;5060909;28;20194;-81
2022/09/25 05:36:17;;;;;;;7.50;6.73;;;;;;;;;;5069462;28;20182;-81
2022/09/25 05:38:43;;;;;;;7.73;6.80;;;;;;;;;;5070494;28;20170;-80
2022/09/25 05:41:09;;;;;;;8.23;7.43;;;;;;;;;;5068223;28;20176;-80
2022/09/25 05:43:39;;;;;;;10.73;8.17;;;;;;;;;;5063491;28;20181;-80
2022/09/25 05:46:04;;;;;;;8.30;7.47;;;;;;;;;;5063502;28;20178;-80
2022/09/25 05:48:29;;;;;;;10.70;9.30;;;;;;;;;;5066572;28;20185;-80
2022/09/25 05:50:55;;;;;;;12.17;10.60;;;;;;;;;;5068694;28;20186;-81
2022/09/25 05:53:21;;;;;;;14.30;12.73;;;;;;;;;;5068700;28;20204;-80
2022/09/25 05:55:50;;;;;;;14.43;12.17;;;;;;;;;;5058677;28;20182;-80
2022/09/25 05:58:15;;;;;;;12.60;11.40;;;;;;;;;;5065271;28;20178;-81
2022/09/25 06:00:41;;;;;;;11.83;10.63;;;;;;;;;;5065396;28;20176;-80
2022/09/25 06:03:07;;;;;;;9.60;8.60;;;;;;;;;;5065892;28;20177;-80
2022/09/25 06:05:32;;;;;;;8.33;7.33;;;;;;;;;;5067465;28;20200;-80
2022/09/25 06:07:57;;;;;;;7.93;7.20;;;;;;;;;;5055725;28;20189;-80
2022/09/25 06:10:25;;;;;;;8.70;7.80;;;;;;;;;;5068794;28;20189;-80
2022/09/25 06:12:53;;;;;;;9.50;8.60;;;;;;;;;;5067438;28;20181;-81
2022/09/25 06:15:18;;;;;;;11.23;10.13;;;;;;;;;;5059174;28;20178;-80
2022/09/25 06:17:43;;;;;;;11.90;9.60;;;;;;;;;;5068811;28;20186;-80
2022/09/25 06:20:10;;;;;;;11.13;9.43;;;;;;;;;;5072973;28;20181;-80
2022/09/25 06:22:35;;;;;;;11.97;10.77;;;;;;;;;;5065940;28;20178;-80
2022/09/25 06:25:00;;;;;;;11.37;10.27;;;;;;;;;;5061781;28;20233;-80
2022/09/25 06:27:26;;;;;;;12.47;11.17;;;;;;;;;;5062271;28;20185;-80
2022/09/25 06:29:51;;;;;;;13.10;10.57;;;;;;;;;;5056931;28;20217;-80
2022/09/25 06:32:16;;;;;;;11.60;10.40;;;;;;;;;;5067816;28;20267;-80
2022/09/25 06:34:41;;;;;;;12.17;10.43;;;;;;;;;;5061304;28;20269;-80
2022/09/25 06:37:07;;;;;;;12.13;10.70;;;;;;;;;;5063277;28;20178;-80
2022/09/25 06:39:32;;;;;;;11.80;9.73;;;;;;;;;;5069724;28;20219;-81
2022/09/25 06:41:58;;;;;;;13.27;11.47;;;;;;;;;;5063928;28;20177;-80
2022/09/25 06:44:23;;;;;;;13.53;11.43;;;;;;;;;;5059313;28;20234;-80
2022/09/25 06:46:49;;;;;;;14.53;10.33;;;;;;;;;;5056551;28;20183;-80
2022/09/25 06:49:15;;;;;;;14.20;12.13;;;;;;;;;;5060178;28;20220;-80
2022/09/25 06:51:40;;;;;;;13.03;10.67;;;;;;;;;;5061930;28;20185;-80
2022/09/25 06:54:06;;;;;;;13.03;11.63;;;;;;;;;;5067200;28;20224;-80
2022/09/25 06:56:31;;;;;;;13.10;11.17;;;;;;;;;;5070599;28;20180;-80
2022/09/25 06:58:56;;;;;;;12.43;11.13;;;;;;;;;;5063544;28;20185;-80
2022/09/25 07:01:21;;;;;;;12.00;10.53;;;;;;;;;;5064448;28;20193;-80
2022/09/25 07:03:48;;;;;;;12.27;10.70;;;;;;;;;;5063445;28;20178;-81
2022/09/25 07:06:20;;;;;;;12.67;11.37;;;;;;;;;;5072486;28;20306;-80
2022/09/25 07:08:46;;;;;;;13.50;11.27;;;;;;;;;;5065798;28;20187;-81
2022/09/25 07:11:13;;;;;;;14.67;11.90;;;;;;;;;;5065424;28;20194;-80
2022/09/25 07:13:39;;;;;;;16.13;13.10;;;;;;;;;;5062907;28;20201;-80
2022/09/25 07:16:05;;;;;;;14.77;13.27;;;;;;;;;;5065431;28;20179;-81
2022/09/25 07:18:31;;;;;;;15.30;12.53;;;;;;;;;;5067562;28;20179;-81
2022/09/25 07:21:01;;;;;;;15.70;12.10;;;;;;;;;;5069761;28;20264;-81
2022/09/25 07:23:27;;;;;;;15.60;12.57;;;;;;;;;;5072399;28;20233;-81
2022/09/25 07:25:52;;;;;;;13.23;11.57;;;;;;;;;;5067525;28;20180;-81
2022/09/25 07:28:18;;;;;;;13.53;11.37;;;;;;;;;;5071116;28;20205;-81
2022/09/25 07:30:44;;;;;;;14.43;12.57;;;;;;;;;;5063311;28;20191;-80
2022/09/25 07:33:11;;;;;;;13.27;11.00;;;;;;;;;;5063581;28;20208;-81
2022/09/25 07:35:37;;;;;;;13.53;12.13;;;;;;;;;;5069587;28;20177;-81
2022/09/25 07:38:03;;;;;;;13.67;11.73;;;;;;;;;;5069164;28;20185;-81
2022/09/25 07:40:30;;;;;;;14.10;12.60;;;;;;;;;;5070401;28;20241;-80
2022/09/25 07:42:59;;;;;;;13.20;11.73;;;;;;;;;;5060491;28;20202;-81
2022/09/25 07:45:24;;;;;;;14.60;11.93;;;;;;;;;;5081814;28;20182;-81
2022/09/25 07:47:51;;;;;;;14.07;12.20;;;;;;;;;;5065929;28;20180;-81
2022/09/25 07:50:16;;;;;;;11.97;10.70;;;;;;;;;;5058217;28;20189;-81
2022/09/25 07:52:41;;;;;;;12.60;11.13;;;;;;;;;;5069267;28;20258;-80
2022/09/25 07:55:07;;;;;;;14.87;13.37;;;;;;;;;;5060618;28;20293;-81
2022/09/25 07:57:32;;;;;;;17.57;13.23;;;;;;;;;;5065922;28;20183;-80
2022/09/25 07:59:58;;;;;;;13.37;11.73;;;;;;;;;;5068327;28;20183;-81
2022/09/25 08:02:23;;;;;;;12.77;11.47;;;;;;;;;;5069552;28;20261;-81
2022/09/25 08:04:48;;;;;;;15.33;12.37;;;;;;;;;;5058580;28;20238;-80
2022/09/25 08:07:13;;;;;;;13.20;10.93;;;;;;;;;;5058377;28;20186;-81
2022/09/25 08:09:39;;;;;;;14.10;11.73;;;;;;;;;;5069240;28;20176;-80
2022/09/25 08:12:04;;;;;;;16.33;12.50;;;;;;;;;;5069804;28;20244;-81
2022/09/25 08:14:29;;;;;;;16.30;12.40;;;;;;;;;;5068412;28;20262;-80
2022/09/25 08:16:57;;;;;;;13.97;12.27;;;;;;;;;;5067684;28;20182;-81
2022/09/25 08:19:23;;;;;;;15.23;13.47;;;;;;;;;;5062275;28;20263;-81
2022/09/25 08:21:49;;;;;;;13.57;12.13;;;;;;;;;;5066992;28;20258;-81
2022/09/25 08:24:14;;;;;;;16.13;12.10;;;;;;;;;;5060629;28;20262;-81
2022/09/25 08:26:39;;;;;;;15.57;12.37;;;;;;;;;;5064365;28;20203;-81
2022/09/25 08:29:05;;;;;;;16.33;13.20;;;;;;;;;;5070229;28;20269;-81
2022/09/25 08:31:30;;;;;;;15.30;13.53;;;;;;;;;;5070734;28;20222;-81
2022/09/25 08:33:56;;;;;;;14.27;12.63;;;;;;;;;;5063965;28;20242;-80
2022/09/25 08:36:22;;;;;;;14.57;11.63;;;;;;;;;;5062844;28;20178;-81
2022/09/25 08:38:47;;;;;;;13.73;11.17;;;;;;;;;;5067930;28;20188;-81
2022/09/25 08:41:15;;;;;;;15.13;12.70;;;;;;;;;;5067421;28;20272;-81
2022/09/25 08:43:58;;;;;;;13.93;12.10;;;;;;;;;;5066278;28;20216;-81
2022/09/25 08:49:20;;;;;;;14.87;12.53;;;;;;;;;;5071314;28;20249;-81
2022/09/25 08:51:48;;;;;;;16.93;12.33;;;;;;;;;;5065514;28;20222;-81
2022/09/25 08:54:21;;;;;;;13.70;11.27;;;;;;;;;;5060098;28;20323;-81
2022/09/25 08:56:48;;;;;;;18.67;13.93;;;;;;;;;;5067047;28;20188;-82
2022/09/25 08:59:22;;;;;;;15.57;13.27;;;;;;;;;;5066699;28;20185;-81
2022/09/25 09:01:52;;;;;;;14.83;12.70;;;;;;;;;;5082258;28;20178;-81
2022/09/25 09:04:18;;;;;;;18.80;13.23;;;;;;;;;;5060453;28;20189;-81
2022/09/25 09:06:44;;;;;;;17.10;14.27;;;;;;;;;;5071441;28;20196;-81
2022/09/25 09:09:14;;;;;;;19.23;14.17;;;;;;;;;;5077493;28;20178;-81
2022/09/25 09:11:46;;;;;;;18.47;16.57;;;;;;;;;;5061172;28;20183;-81
2022/09/25 09:14:15;;;;;;;31.70;22.83;;;;;;;;;;5069570;28;20239;-81
2022/09/25 09:16:40;;;;;;;21.33;16.07;;;;;;;;;;5073487;28;20266;-81
2022/09/25 09:19:06;;;;;;;61.13;38.73;;;;;;;;;;5060809;28;20259;-81
2022/09/25 09:21:31;;;;;;;21.03;18.83;;;;;;;;;;5066909;28;20198;-81
2022/09/25 09:24:09;;;;;;;23.80;18.10;;;;;;;;;;5063989;28;20251;-81
2022/09/25 09:26:42;;;;;;;19.07;16.27;;;;;;;;;;5062888;28;20183;-81
2022/09/25 09:29:16;;;;;;;29.47;26.40;;;;;;;;;;5067199;28;20191;-81
2022/09/25 09:31:43;;;;;;;34.27;30.67;;;;;;;;;;5077681;28;20276;-81
2022/09/25 09:34:27;;;;;;;23.90;21.30;;;;;;;;;;5067829;28;20261;-81
2022/09/25 09:37:17;;;;;;;22.60;18.60;;;;;;;;;;5064387;28;20187;-81
2022/09/25 09:39:59;;;;;;;22.30;20.00;;;;;;;;;;5064001;28;20210;-81
2022/09/25 09:42:42;;;;;;;17.97;16.07;;;;;;;;;;5063376;28;20181;-81
2022/09/25 09:45:17;;;;;;;22.37;18.53;;;;;;;;;;5063485;28;20188;-81
2022/09/25 09:47:46;;;;;;;21.53;17.07;;;;;;;;;;5068093;28;20179;-81
2022/09/25 09:50:31;;;;;;;16.23;14.53;;;;;;;;;;5058036;28;20189;-81
2022/09/25 09:53:02;;;;;;;16.83;15.03;;;;;;;;;;5070550;28;20194;-81
2022/09/25 09:55:34;;;;;;;18.70;15.07;;;;;;;;;;5071337;28;20272;-82
2022/09/25 09:58:07;;;;;;;18.80;15.53;;;;;;;;;;5065871;28;20179;-81
2022/09/25 10:00:33;;;;;;;16.77;14.90;;;;;;;;;;5060359;28;20171;-81
2022/09/25 10:03:01;;;;;;;16.63;14.93;;;;;;;;;;5070111;28;20188;-82
2022/09/25 10:05:28;;;;;;;17.57;15.67;;;;;;;;;;5066578;28;20535;-82
2022/09/25 10:07:53;;;;;;;16.77;15.03;;;;;;;;;;5061875;28;20176;-81
2022/09/25 10:10:19;;;;;;;17.13;15.30;;;;;;;;;;5061995;28;20199;-81
2022/09/25 10:12:52;;;;;;;19.50;15.83;;;;;;;;;;5082312;28;20202;-82
2022/09/25 10:15:51;;;;;;;18.97;15.20;;;;;;;;;;5058846;28;20276;-82
2022/09/25 10:18:17;;;;;;;16.43;14.73;;;;;;;;;;5034107;28;20221;-81
2022/09/25 10:21:01;;;;;;;20.00;15.23;;;;;;;;;;5059477;28;20181;-82
2022/09/25 10:23:31;;;;;;;20.17;15.40;;;;;;;;;;5068965;28;20232;-82
2022/09/25 10:25:56;;;;;;;17.10;15.27;;;;;;;;;;5064198;28;20193;-82
2022/09/25 10:28:25;;;;;;;16.80;15.00;;;;;;;;;;5062967;28;20181;-81
2022/09/25 10:31:11;;;;;;;16.73;15.10;;;;;;;;;;5064049;28;20207;-82
2022/09/25 10:33:36;;;;;;;17.23;15.13;;;;;;;;;;5067639;28;20190;-82
2022/09/25 10:36:02;;;;;;;17.87;16.00;;;;;;;;;;5054754;28;20185;-82
2022/09/25 10:38:32;;;;;;;16.53;14.67;;;;;;;;;;5057785;28;20264;-81
2022/09/25 10:41:21;;;;;;;17.93;16.17;;;;;;;;;;5066580;28;20181;-82
2022/09/25 10:43:51;;;;;;;22.07;16.80;;;;;;;;;;5061704;28;20207;-81
2022/09/25 10:50:09;;;;;;;21.20;17.43;;;;;;;;;;5055768;28;20186;-82
2022/09/25 10:52:06;;;;;;;20.00;17.80;;;;;;;;;;5062061;28;20207;-82
2022/09/25 10:54:32;;;;;;;18.90;16.93;;;;;;;;;;5059253;28;20205;-82
2022/09/25 10:56:58;;;;;;;18.47;16.57;;;;;;;;;;5064826;28;20192;-82
2022/09/25 10:59:24;;;;;;;19.87;17.83;;;;;;;;;;5065183;28;20183;-81
2022/09/25 11:01:50;;;;;;;22.20;19.47;;;;;;;;;;5058873;28;20181;-82
2022/09/25 11:04:18;;;;;;;21.80;19.50;;;;;;;;;;5059481;28;20183;-81
2022/09/25 11:06:46;;;;;;;24.43;19.67;;;;;;;;;;5061547;28;20306;-82
2022/09/25 11:09:20;;;;;;;22.73;18.63;;;;;;;;;;5064469;28;20243;-82
2022/09/25 11:11:48;;;;;;;20.90;18.40;;;;;;;;;;5059337;28;20277;-81
2022/09/25 11:14:31;;;;;;;20.50;17.17;;;;;;;;;;5063173;28;20204;-82
2022/09/25 11:16:57;;;;;;;20.20;17.70;;;;;;;;;;5066070;28;20183;-82
2022/09/25 11:19:33;;;;;;;18.23;16.07;;;;;;;;;;5056835;28;20173;-82
2022/09/25 11:22:09;;;;;;;20.63;17.47;;;;;;;;;;5066599;28;20746;-82
2022/09/25 11:24:36;;;;;;;19.40;17.40;;;;;;;;;;5063643;28;20232;-82
2022/09/25 11:27:03;;;;;;;18.67;15.90;;;;;;;;;;5066684;28;20181;-82
2022/09/25 11:29:47;;;;;;;18.70;16.20;;;;;;;;;;5066947;28;20180;-82
2022/09/25 11:32:13;;;;;;;20.47;17.57;;;;;;;;;;5060929;28;20194;-82
2022/09/25 11:34:57;;;;;;;18.57;16.67;;;;;;;;;;5064536;28;20201;-82
2022/09/25 11:37:42;;;;;;;18.03;15.40;;;;;;;;;;5058962;28;20185;-82
2022/09/25 11:42:58;;;;;;;17.47;15.57;;;;;;;;;;5067964;28;20242;-82
2022/09/25 11:45:45;;;;;;;18.63;14.67;;;;;;;;;;5061469;28;20202;-82
2022/09/25 11:48:11;;;;;;;16.57;14.77;;;;;;;;;;5051105;28;20186;-82
2022/09/25 11:50:59;;;;;;;17.70;15.90;;;;;;;;;;5067062;28;20182;-82
2022/09/25 11:53:37;;;;;;;20.20;18.20;;;;;;;;;;5046489;28;20220;-82
2022/09/25 11:56:09;;;;;;;18.60;15.20;;;;;;;;;;5068786;28;20212;-82
2022/09/25 11:58:53;;;;;;;18.50;15.63;;;;;;;;;;5067470;28;20173;-82
2022/09/25 12:01:21;;;;;;;19.43;15.20;;;;;;;;;;5068261;28;20242;-82
2022/09/25 12:03:55;;;;;;;20.00;17.27;;;;;;;;;;5067011;28;20183;-82
2022/09/25 12:06:41;;;;;;;19.03;16.03;;;;;;;;;;5063598;28;20232;-82
2022/09/25 12:09:22;;;;;;;17.03;15.23;;;;;;;;;;5075421;28;20185;-82
2022/09/25 12:11:56;;;;;;;21.27;15.47;;;;;;;;;;5065778;28;20185;-82
2022/09/25 12:14:21;;;;;;;16.57;14.20;;;;;;;;;;5063171;28;20213;-82
2022/09/25 12:16:53;;;;;;;16.03;14.33;;;;;;;;;;5063899;28;20177;-82
2022/09/25 12:19:25;;;;;;;16.33;14.13;;;;;;;;;;5070515;28;20174;-82
2022/09/25 12:22:11;;;;;;;22.50;16.97;;;;;;;;;;5066977;28;20215;-82
2022/09/25 12:24:45;;;;;;;16.20;14.03;;;;;;;;;;5064120;28;20225;-82
2022/09/25 12:27:29;;;;;;;21.03;18.43;;;;;;;;;;5061819;28;20186;-82
2022/09/25 12:29:56;;;;;;;17.47;14.97;;;;;;;;;;5060110;28;20175;-82
2022/09/25 12:32:24;;;;;;;16.83;14.63;;;;;;;;;;5065587;28;20178;-82
2022/09/25 12:34:49;;;;;;;15.73;14.10;;;;;;;;;;5066061;28;20199;-82
2022/09/25 12:37:30;;;;;;;16.00;13.00;;;;;;;;;;5067012;28;20412;-82
2022/09/25 12:40:01;;;;;;;17.63;14.63;;;;;;;;;;5062625;28;20179;-82
2022/09/25 12:42:38;;;;;;;15.83;14.13;;;;;;;;;;5068996;28;20177;-82
2022/09/25 12:45:04;;;;;;;17.63;15.73;;;;;;;;;;5063146;28;20187;-82
2022/09/25 12:47:36;;;;;;;18.13;16.27;;;;;;;;;;5068643;28;20173;-82
2022/09/25 12:50:08;;;;;;;17.57;15.73;;;;;;;;;;5068146;28;20273;-82
2022/09/25 12:52:39;;;;;;;23.03;17.47;;;;;;;;;;5057859;28;20178;-82
2022/09/25 12:55:05;;;;;;;18.50;15.73;;;;;;;;;;5065591;28;20235;-82
2022/09/25 12:57:30;;;;;;;18.10;12.07;;;;;;;;;;5064490;28;20185;-82
2022/09/25 13:00:27;;;;;;;17.63;14.43;;;;;;;;;;5058472;28;20187;-82
2022/09/25 13:03:14;;;;;;;17.67;15.07;;;;;;;;;;5045098;28;20619;-82
2022/09/25 13:05:44;;;;;;;16.30;12.60;;;;;;;;;;5065715;28;20204;-82
2022/09/25 13:08:19;;;;;;;16.33;12.73;;;;;;;;;;5060926;28;20196;-82
2022/09/25 13:10:48;;;;;;;16.90;13.33;;;;;;;;;;5067630;28;20204;-82
2022/09/25 13:13:27;;;;;;;16.03;13.57;;;;;;;;;;5069862;28;20241;-82
2022/09/25 13:15:56;;;;;;;15.87;12.47;;;;;;;;;;5060858;28;20178;-82
2022/09/25 13:18:23;;;;;;;14.97;13.33;;;;;;;;;;5058402;28;20178;-82
2022/09/25 13:20:50;;;;;;;14.40;12.80;;;;;;;;;;5064244;28;20175;-82
2022/09/25 13:23:29;;;;;;;16.83;13.87;;;;;;;;;;5068233;28;20189;-82
2022/09/25 13:25:59;;;;;;;15.87;13.57;;;;;;;;;;5071741;28;20194;-82
2022/09/25 13:28:45;;;;;;;18.20;13.10;;;;;;;;;;5064278;28;20186;-82
2022/09/25 13:31:12;;;;;;;14.70;13.13;;;;;;;;;;5052312;28;20353;-82
2022/09/25 13:33:42;;;;;;;14.87;13.33;;;;;;;;;;5063225;28;20200;-82
2022/09/25 13:36:15;;;;;;;15.87;14.17;;;;;;;;;;5074216;28;20244;-82
2022/09/25 13:41:28;;;;;;;14.13;12.63;;;;;;;;;;5073825;28;20183;-82
2022/09/25 13:44:16;;;;;;;17.03;12.90;;;;;;;;;;5062159;28;20194;-82
2022/09/25 13:46:41;;;;;;;13.03;11.60;;;;;;;;;;5053418;28;20188;-82
2022/09/25 13:49:31;;;;;;;14.73;13.07;;;;;;;;;;5063581;28;20234;-82
2022/09/25 13:51:56;;;;;;;15.90;13.07;;;;;;;;;;5060569;28;20186;-82
2022/09/25 13:54:21;;;;;;;15.20;12.37;;;;;;;;;;5051328;28;20212;-82
2022/09/25 13:56:47;;;;;;;15.83;13.37;;;;;;;;;;5059264;28;20217;-82
2022/09/25 13:59:13;;;;;;;15.70;13.10;;;;;;;;;;5061744;28;20184;-82
2022/09/25 14:01:40;;;;;;;14.83;12.30;;;;;;;;;;5067601;28;20182;-82
2022/09/25 14:04:14;;;;;;;20.47;15.47;;;;;;;;;;5065865;28;20183;-82
2022/09/25 14:06:45;;;;;;;15.60;12.87;;;;;;;;;;5055657;28;20192;-82
2022/09/25 14:09:18;;;;;;;16.13;11.40;;;;;;;;;;5062816;28;20225;-82
2022/09/25 14:11:50;;;;;;;11.73;10.50;;;;;;;;;;5067562;28;20177;-81
2022/09/25 14:14:21;;;;;;;12.07;10.80;;;;;;;;;;5064509;28;20325;-82
2022/09/25 14:16:50;;;;;;;15.03;12.70;;;;;;;;;;5059300;28;20185;-82
2022/09/25 14:19:31;;;;;;;14.27;11.20;;;;;;;;;;5058903;28;20170;-82
2022/09/25 14:21:57;;;;;;;12.60;10.83;;;;;;;;;;5059306;28;20235;-81
2022/09/25 14:24:30;;;;;;;13.77;11.07;;;;;;;;;;5061640;28;20233;-82
2022/09/25 14:26:56;;;;;;;11.97;10.77;;;;;;;;;;5060322;28;20479;-82
2022/09/25 14:29:24;;;;;;;11.00;9.87;;;;;;;;;;5055521;28;20175;-81
2022/09/25 14:31:55;;;;;;;13.47;12.03;;;;;;;;;;5061165;28;20228;-81
2022/09/25 14:34:29;;;;;;;15.67;14.13;;;;;;;;;;5070854;28;20194;-81
2022/09/25 14:37:02;;;;;;;16.63;14.93;;;;;;;;;;5066349;28;20174;-82
2022/09/25 14:39:27;;;;;;;14.23;12.17;;;;;;;;;;5062510;28;20210;-81
2022/09/25 14:42:04;;;;;;;13.30;10.67;;;;;;;;;;5067698;28;20185;-81
2022/09/25 14:44:48;;;;;;;15.20;11.60;;;;;;;;;;5060057;28;20183;-82
2022/09/25 14:47:14;;;;;;;17.03;11.47;;;;;;;;;;5063728;28;20177;-81
2022/09/25 14:49:42;;;;;;;11.93;10.17;;;;;;;;;;5081187;28;20184;-82
2022/09/25 14:52:09;;;;;;;14.17;11.60;;;;;;;;;;5086025;28;20215;-82
2022/09/25 14:54:38;;;;;;;10.97;9.73;;;;;;;;;;5060505;28;20225;-81
2022/09/25 14:57:04;;;;;;;15.53;11.80;;;;;;;;;;5062225;28;20178;-81
2022/09/25 14:59:36;;;;;;;16.13;11.17;;;;;;;;;;5054241;28;20228;-82